createdAt,value
2018-02-20T00:01:05.348Z,101087.94
2018-02-20T00:03:32.985Z,101084.06
2018-02-20T00:06:00.596Z,101080.20
2018-02-20T00:08:28.272Z,101075.21
2018-02-20T00:10:55.891Z,101076.12
2018-02-20T00:13:24.544Z,101076.64
2018-02-20T00:15:52.198Z,101071.44
2018-02-20T00:18:20.661Z,101070.60
2018-02-20T00:20:49.134Z,101068.48
2018-02-20T00:23:16.784Z,101061.97
2018-02-20T00:25:44.427Z,101067.48
2018-02-20T00:28:12.101Z,101065.75
2018-02-20T00:30:39.739Z,101064.13
2018-02-20T00:33:07.411Z,101066.67
2018-02-20T00:35:35.059Z,101063.44
2018-02-20T00:38:03.583Z,101060.79
2018-02-20T00:40:31.706Z,101068.22
2018-02-20T00:42:59.345Z,101067.01
2018-02-20T00:45:26.952Z,101063.25
2018-02-20T00:47:54.613Z,101052.45
2018-02-20T00:50:22.221Z,101046.16
2018-02-20T00:52:50.123Z,101041.88
2018-02-20T00:55:18.563Z,101043.03
2018-02-20T00:57:46.231Z,101034.27
2018-02-20T01:00:14.796Z,101037.84
2018-02-20T01:02:42.438Z,101043.45
2018-02-20T01:05:10.054Z,101039.28
2018-02-20T01:07:38.945Z,101041.71
2018-02-20T01:10:06.572Z,101040.70
2018-02-20T01:12:34.584Z,101038.95
2018-02-20T01:15:02.192Z,101033.08
2018-02-20T01:17:30.381Z,101032.35
2018-02-20T01:19:58.012Z,101040.59
2018-02-20T01:22:26.396Z,101041.70
2018-02-20T01:24:54.007Z,101043.03
2018-02-20T01:27:21.645Z,101043.34
2018-02-20T01:29:50.040Z,101052.80
2018-02-20T01:32:17.932Z,101051.48
2018-02-20T01:34:45.540Z,101053.71
2018-02-20T01:37:14.095Z,101053.61
2018-02-20T01:39:41.760Z,101057.89
2018-02-20T01:42:09.634Z,101058.41
2018-02-20T01:44:37.607Z,101056.88
2018-02-20T01:47:05.276Z,101055.86
2018-02-20T01:49:32.965Z,101054.12
2018-02-20T01:52:01.405Z,101054.54
2018-02-20T01:54:30.494Z,101051.47
2018-02-20T01:56:58.979Z,101050.45
2018-02-20T01:59:26.741Z,101045.77
2018-02-20T02:01:54.384Z,101043.54
2018-02-20T02:04:22.231Z,101036.92
2018-02-20T02:06:50.040Z,101037.34
2018-02-20T02:09:17.676Z,101033.77
2018-02-20T02:11:45.491Z,101035.40
2018-02-20T02:14:13.149Z,101039.68
2018-02-20T02:16:40.851Z,101042.21
2018-02-20T02:19:09.416Z,101047.09
2018-02-20T02:21:37.113Z,101042.73
2018-02-20T02:24:04.867Z,101040.56
2018-02-20T02:26:32.588Z,101043.72
2018-02-20T02:29:00.561Z,101043.91
2018-02-20T02:31:29.290Z,101044.68
2018-02-20T02:33:57.855Z,101042.01
2018-02-20T02:36:26.443Z,101041.59
2018-02-20T02:38:54.852Z,101046.48
2018-02-20T02:41:23.459Z,101048.30
2018-02-20T02:43:51.151Z,101044.57
2018-02-20T02:46:18.837Z,101048.84
2018-02-20T02:48:46.592Z,101056.20
2018-02-20T02:51:14.783Z,101055.22
2018-02-20T02:53:42.495Z,101059.19
2018-02-20T02:56:10.102Z,101057.61
2018-02-20T02:58:38.628Z,101056.59
2018-02-20T03:01:06.346Z,101063.48
2018-02-20T03:03:34.132Z,101063.57
2018-02-20T03:06:01.847Z,101057.59
2018-02-20T03:08:29.491Z,101058.38
2018-02-20T03:10:57.232Z,101060.67
2018-02-20T03:13:25.852Z,101058.67
2018-02-20T03:15:53.556Z,101065.18
2018-02-20T03:18:21.295Z,101069.33
2018-02-20T03:20:49.151Z,101067.91
2018-02-20T03:23:16.869Z,101072.66
2018-02-20T03:25:45.395Z,101071.05
2018-02-20T03:28:13.712Z,101075.50
2018-02-20T03:30:41.332Z,101069.69
2018-02-20T03:33:10.267Z,101065.15
2018-02-20T03:35:37.995Z,101058.39
2018-02-20T03:38:06.471Z,101056.31
2018-02-20T03:40:34.154Z,101060.98
2018-02-20T03:43:01.883Z,101063.41
2018-02-20T03:45:29.587Z,101064.52
2018-02-20T03:47:57.323Z,101062.83
2018-02-20T03:50:25.335Z,101064.58
2018-02-20T03:52:53.227Z,101066.17
2018-02-20T03:55:21.690Z,101062.14
2018-02-20T03:57:49.446Z,101055.09
2018-02-20T04:00:17.300Z,101053.50
2018-02-20T04:02:45.574Z,101057.42
2018-02-20T04:05:13.247Z,101061.06
2018-02-20T04:07:41.323Z,101063.48
2018-02-20T04:10:09.036Z,101068.17
2018-02-20T04:12:37.796Z,101074.79
2018-02-20T04:15:05.485Z,101073.50
2018-02-20T04:17:33.212Z,101080.23
2018-02-20T04:20:00.931Z,101086.06
2018-02-20T04:22:28.643Z,101086.75
2018-02-20T04:24:57.101Z,101088.83
2018-02-20T04:27:24.848Z,101086.77
2018-02-20T04:29:52.704Z,101094.97
2018-02-20T04:32:20.418Z,101095.98
2018-02-20T04:34:48.397Z,101104.36
2018-02-20T04:37:16.506Z,101099.09
2018-02-20T04:39:44.204Z,101098.52
2018-02-20T04:42:12.708Z,101103.84
2018-02-20T04:44:41.143Z,101103.66
2018-02-20T04:47:08.864Z,101109.05
2018-02-20T04:49:36.547Z,101102.02
2018-02-20T04:52:04.273Z,101100.19
2018-02-20T04:54:32.012Z,101098.77
2018-02-20T04:56:59.883Z,101100.33
2018-02-20T04:59:27.608Z,101093.24
2018-02-20T05:01:55.322Z,101087.05
2018-02-20T05:04:23.006Z,101090.33
2018-02-20T05:06:50.844Z,101093.98
2018-02-20T05:09:18.868Z,101088.91
2018-02-20T05:11:47.163Z,101096.45
2018-02-20T05:14:14.853Z,101093.39
2018-02-20T05:16:43.467Z,101105.22
2018-02-20T05:19:11.152Z,101099.31
2018-02-20T05:21:38.905Z,101103.12
2018-02-20T05:24:06.887Z,101100.67
2018-02-20T05:26:34.617Z,101101.47
2018-02-20T05:29:02.360Z,101096.02
2018-02-20T05:31:30.092Z,101095.89
2018-02-20T05:33:58.103Z,101092.83
2018-02-20T05:36:25.889Z,101085.02
2018-02-20T05:38:53.827Z,101091.13
2018-02-20T05:41:22.455Z,101092.22
2018-02-20T05:43:50.159Z,101090.52
2018-02-20T05:46:17.929Z,101088.25
2018-02-20T05:48:45.667Z,101092.47
2018-02-20T05:51:13.427Z,101097.06
2018-02-20T05:53:42.084Z,101107.03
2018-02-20T05:56:09.732Z,101106.83
2018-02-20T05:58:37.368Z,101107.18
2018-02-20T06:01:05.001Z,101115.95
2018-02-20T06:03:32.647Z,101114.50
2018-02-20T06:06:00.322Z,101117.41
2018-02-20T06:08:28.766Z,101120.49
2018-02-20T06:10:57.292Z,101118.48
2018-02-20T06:13:26.417Z,101120.07
2018-02-20T06:15:54.494Z,101116.41
2018-02-20T06:18:22.212Z,101119.16
2018-02-20T06:20:50.609Z,101119.13
2018-02-20T06:23:19.058Z,101113.63
2018-02-20T06:25:46.831Z,101112.25
2018-02-20T06:28:15.428Z,101120.59
2018-02-20T06:30:43.919Z,101118.06
2018-02-20T06:33:11.652Z,101113.34
2018-02-20T06:35:39.428Z,101112.91
2018-02-20T06:38:07.432Z,101114.19
2018-02-20T06:40:35.152Z,101115.27
2018-02-20T06:43:02.841Z,101114.97
2018-02-20T06:45:30.627Z,101117.16
2018-02-20T06:47:58.892Z,101113.92
2018-02-20T06:50:27.207Z,101118.00
2018-02-20T07:05:57.898Z,101118.89
2018-02-20T07:08:25.727Z,101121.30
2018-02-20T07:10:53.446Z,101119.80
2018-02-20T07:13:21.181Z,101115.95
2018-02-20T07:15:48.898Z,101116.13
2018-02-20T07:18:16.586Z,101120.22
2018-02-20T07:20:44.385Z,101122.42
2018-02-20T07:23:12.131Z,101131.23
2018-02-20T07:25:39.822Z,101132.43
2018-02-20T07:28:07.536Z,101131.36
2018-02-20T07:30:35.473Z,101128.30
2018-02-20T07:33:03.186Z,101136.59
2018-02-20T07:35:31.046Z,101128.64
2018-02-20T07:37:58.850Z,101127.77
2018-02-20T07:40:26.768Z,101127.77
2018-02-20T07:42:54.697Z,101141.08
2018-02-20T07:45:22.764Z,101141.82
2018-02-20T07:47:50.565Z,101141.34
2018-02-20T07:50:18.300Z,101144.08
2018-02-20T07:52:46.045Z,101138.20
2018-02-20T07:55:13.758Z,101148.48
2018-02-20T07:57:41.593Z,101142.44
2018-02-20T08:00:09.321Z,101151.79
2018-02-20T08:02:37.019Z,101156.88
2018-02-20T08:05:04.824Z,101163.05
2018-02-20T08:07:32.505Z,101159.63
2018-02-20T08:10:00.317Z,101158.81
2018-02-20T08:12:28.000Z,101159.16
2018-02-20T08:14:55.707Z,101162.78
2018-02-20T08:17:23.396Z,101155.90
2018-02-20T08:19:51.093Z,101157.42
2018-02-20T08:22:18.773Z,101156.83
2018-02-20T08:24:46.491Z,101155.44
2018-02-20T08:27:14.163Z,101156.21
2018-02-20T08:29:41.903Z,101155.47
2018-02-20T08:32:09.638Z,101155.77
2018-02-20T08:34:37.336Z,101163.14
2018-02-20T08:37:05.066Z,101163.37
2018-02-20T08:39:32.779Z,101156.48
2018-02-20T08:42:00.461Z,101157.03
2018-02-20T08:44:28.189Z,101155.45
2018-02-20T08:46:55.866Z,101155.48
2018-02-20T08:49:23.722Z,101151.27
2018-02-20T08:51:51.506Z,101149.00
2018-02-20T08:54:19.198Z,101142.72
2018-02-20T08:56:46.912Z,101143.27
2018-02-20T08:59:14.590Z,101145.92
2018-02-20T09:01:42.300Z,101144.56
2018-02-20T09:04:09.969Z,101146.45
2018-02-20T09:06:37.692Z,101145.80
2018-02-20T09:09:05.377Z,101152.84
2018-02-20T09:11:33.087Z,101143.70
2018-02-20T09:14:00.782Z,101146.20
2018-02-20T09:16:28.515Z,101148.80
2018-02-20T09:18:56.276Z,101144.81
2018-02-20T09:21:24.048Z,101144.83
2018-02-20T09:23:51.929Z,101149.63
2018-02-20T09:26:19.655Z,101146.77
2018-02-20T09:28:47.379Z,101149.45
2018-02-20T09:31:15.121Z,101143.41
2018-02-20T09:33:42.820Z,101144.66
2018-02-20T09:36:10.554Z,101138.97
2018-02-20T09:38:38.314Z,101136.88
2018-02-20T09:41:07.847Z,101126.62
2018-02-20T09:43:35.536Z,101134.78
2018-02-20T09:46:03.550Z,101140.48
2018-02-20T09:48:31.136Z,101141.00
2018-02-20T09:50:58.972Z,101141.92
2018-02-20T09:53:26.680Z,101130.94
2018-02-20T09:55:54.426Z,101142.55
2018-02-20T09:58:22.103Z,101143.17
2018-02-20T10:00:49.821Z,101146.94
2018-02-20T10:03:17.620Z,101152.51
2018-02-20T10:05:45.381Z,101154.02
2018-02-20T10:08:13.026Z,101141.64
2018-02-20T10:10:40.658Z,101143.36
2018-02-20T10:13:08.318Z,101141.61
2018-02-20T10:15:35.950Z,101145.03
2018-02-20T10:18:03.625Z,101150.50
2018-02-20T10:20:31.290Z,101143.89
2018-02-20T10:22:58.886Z,101145.50
2018-02-20T10:25:26.486Z,101154.22
2018-02-20T10:27:54.250Z,101147.45
2018-02-20T10:30:21.838Z,101156.70
2018-02-20T10:32:49.485Z,101152.40
2018-02-20T10:35:17.091Z,101159.95
2018-02-20T10:37:44.719Z,101155.23
2018-02-20T10:40:12.314Z,101157.39
2018-02-20T10:42:39.988Z,101154.61
2018-02-20T10:45:07.650Z,101156.23
2018-02-20T10:47:35.277Z,101155.52
2018-02-20T10:50:02.881Z,101156.62
2018-02-20T11:08:12.096Z,101161.22
2018-02-20T11:10:39.726Z,101165.59
2018-02-20T11:13:07.323Z,101168.33
2018-02-20T11:15:34.944Z,101163.33
2018-02-20T11:18:02.562Z,101154.41
2018-02-20T11:20:30.231Z,101160.58
2018-02-20T11:22:57.832Z,101163.36
2018-02-20T11:25:25.466Z,101163.72
2018-02-20T11:27:53.062Z,101160.44
2018-02-20T11:30:20.705Z,101160.94
2018-02-20T11:32:48.300Z,101162.11
2018-02-20T11:35:15.929Z,101156.73
2018-02-20T11:37:43.530Z,101156.46
2018-02-20T11:40:11.153Z,101148.37
2018-02-20T11:42:38.763Z,101145.62
2018-02-20T11:45:06.379Z,101142.91
2018-02-20T11:47:33.987Z,101134.78
2018-02-20T11:50:01.607Z,101133.70
2018-02-20T11:52:29.199Z,101136.62
2018-02-20T11:54:56.830Z,101134.87
2018-02-20T11:57:24.422Z,101138.98
2018-02-20T11:59:52.050Z,101135.34
2018-02-20T12:02:19.662Z,101134.53
2018-02-20T12:04:47.315Z,101127.25
2018-02-20T12:07:14.907Z,101126.33
2018-02-20T12:09:42.531Z,101122.92
2018-02-20T12:12:10.115Z,101122.79
2018-02-20T12:14:37.731Z,101122.07
2018-02-20T12:17:05.330Z,101128.45
2018-02-20T12:19:33.183Z,101125.72
2018-02-20T12:22:00.789Z,101126.50
2018-02-20T12:24:28.626Z,101130.99
2018-02-20T12:26:56.225Z,101127.91
2018-02-20T12:29:23.862Z,101129.34
2018-02-20T12:31:51.591Z,101127.28
2018-02-20T12:34:19.215Z,101127.39
2018-02-20T12:36:47.009Z,101127.09
2018-02-20T12:39:14.635Z,101126.86
2018-02-20T12:41:42.247Z,101119.58
2018-02-20T12:44:09.854Z,101117.35
2018-02-20T12:46:37.455Z,101114.13
2018-02-20T12:49:05.123Z,101112.08
2018-02-20T12:51:32.706Z,101107.45
2018-02-20T12:54:00.358Z,101099.09
2018-02-20T12:56:27.951Z,101094.44
2018-02-20T12:58:55.569Z,101092.43
2018-02-20T13:01:23.418Z,101096.69
2018-02-20T13:03:51.047Z,101095.72
2018-02-20T13:06:18.679Z,101090.50
2018-02-20T13:08:46.346Z,101089.16
2018-02-20T13:11:13.979Z,101086.90
2018-02-20T13:13:41.609Z,101084.13
2018-02-20T13:16:09.211Z,101087.14
2018-02-20T13:18:36.846Z,101085.31
2018-02-20T13:21:04.438Z,101080.03
2018-02-20T13:23:32.082Z,101072.64
2018-02-20T13:25:59.671Z,101080.22
2018-02-20T13:28:27.447Z,101073.22
2018-02-20T13:30:57.015Z,101076.65
2018-02-20T13:33:24.646Z,101072.89
2018-02-20T13:35:52.243Z,101075.55
2018-02-20T13:38:19.862Z,101070.00
2018-02-20T13:40:47.467Z,101072.47
2018-02-20T13:43:15.098Z,101067.74
2018-02-20T13:45:42.742Z,101068.50
2018-02-20T13:48:10.350Z,101065.64
2018-02-20T13:50:37.943Z,101066.19
2018-02-20T13:53:05.582Z,101063.90
2018-02-20T13:55:33.312Z,101061.86
2018-02-20T13:58:00.954Z,101068.23
2018-02-20T14:00:28.596Z,101072.76
2018-02-20T14:02:56.275Z,101071.09
2018-02-20T14:05:23.935Z,101074.06
2018-02-20T14:07:51.534Z,101068.48
2018-02-20T14:10:19.142Z,101070.05
2018-02-20T14:12:46.762Z,101070.19
2018-02-20T14:15:14.371Z,101068.53
2018-02-20T14:17:42.005Z,101065.11
2018-02-20T14:20:09.602Z,101069.41
2018-02-20T14:22:37.282Z,101067.66
2018-02-20T14:25:05.075Z,101067.17
2018-02-20T14:27:32.690Z,101066.34
2018-02-20T14:30:00.291Z,101072.42
2018-02-20T14:32:28.025Z,101072.24
2018-02-20T14:34:55.631Z,101070.46
2018-02-20T14:37:23.346Z,101067.36
2018-02-20T14:39:50.986Z,101063.80
2018-02-20T14:42:18.608Z,101063.56
2018-02-20T14:44:46.214Z,101065.69
2018-02-20T14:47:13.844Z,101069.06
2018-02-20T14:49:41.442Z,101068.52
2018-02-20T14:52:09.328Z,101064.85
2018-02-20T14:54:36.931Z,101057.98
2018-02-20T14:57:04.817Z,101059.79
2018-02-20T14:59:32.411Z,101058.38
2018-02-20T15:02:00.062Z,101064.16
2018-02-20T15:04:27.682Z,101059.58
2018-02-20T15:06:55.337Z,101058.27
2018-02-20T15:09:23.190Z,101060.87
2018-02-20T15:11:50.835Z,101059.78
2018-02-20T15:14:18.494Z,101068.25
2018-02-20T15:16:46.111Z,101059.53
2018-02-20T15:19:13.734Z,101068.34
2018-02-20T15:21:41.390Z,101065.53
2018-02-20T15:24:08.991Z,101067.56
2018-02-20T15:26:36.626Z,101071.84
2018-02-20T15:29:04.242Z,101073.58
2018-02-20T15:31:31.884Z,101071.94
2018-02-20T15:33:59.470Z,101073.80
2018-02-20T15:36:27.131Z,101079.98
2018-02-20T15:38:54.738Z,101075.77
2018-02-20T15:41:22.379Z,101079.52
2018-02-20T15:43:49.988Z,101083.19
2018-02-20T15:46:17.608Z,101089.96
2018-02-20T15:48:45.327Z,101094.62
2018-02-20T15:51:12.967Z,101103.17
2018-02-20T15:53:40.570Z,101106.17
2018-02-20T15:56:08.191Z,101103.94
2018-02-20T15:58:35.778Z,101112.00
2018-02-20T16:01:03.423Z,101111.78
2018-02-20T16:03:31.047Z,101116.13
2018-02-20T16:05:58.767Z,101124.61
2018-02-20T16:08:26.373Z,101124.59
2018-02-20T16:10:54.019Z,101129.44
2018-02-20T16:13:21.774Z,101133.66
2018-02-20T16:15:53.044Z,101133.84
2018-02-20T16:18:20.647Z,101133.20
2018-02-20T16:20:48.306Z,101135.13
2018-02-20T16:23:15.902Z,101139.44
2018-02-20T16:25:43.550Z,101143.22
2018-02-20T16:28:11.143Z,101145.58
2018-02-20T16:30:38.799Z,101149.92
2018-02-20T16:33:06.518Z,101146.43
2018-02-20T16:35:34.142Z,101149.28
2018-02-20T16:38:01.770Z,101145.56
2018-02-20T16:40:29.378Z,101149.06
2018-02-20T16:42:57.151Z,101147.20
2018-02-20T16:45:24.827Z,101155.69
2018-02-20T16:47:52.453Z,101155.44
2018-02-20T16:50:20.063Z,101159.85
2018-02-20T16:52:47.859Z,101158.45
2018-02-20T16:55:15.483Z,101159.02
2018-02-20T16:57:43.118Z,101167.11
2018-02-20T17:00:10.734Z,101169.73
2018-02-20T17:02:38.420Z,101168.25
2018-02-20T17:05:06.002Z,101172.73
2018-02-20T17:07:33.631Z,101183.09
2018-02-20T17:10:01.228Z,101185.30
2018-02-20T17:12:28.993Z,101190.42
2018-02-20T17:14:56.679Z,101190.73
2018-02-20T17:17:24.317Z,101192.36
2018-02-20T17:19:52.168Z,101187.59
2018-02-20T17:22:19.807Z,101192.06
2018-02-20T17:24:47.439Z,101194.77
2018-02-20T17:27:15.082Z,101202.33
2018-02-20T17:29:42.695Z,101195.48
2018-02-20T17:32:10.315Z,101201.59
2018-02-20T17:34:38.026Z,101203.14
2018-02-20T17:37:05.660Z,101208.72
2018-02-20T17:39:33.261Z,101209.44
2018-02-20T17:42:00.912Z,101210.00
2018-02-20T17:44:28.508Z,101210.03
2018-02-20T17:46:56.147Z,101209.31
2018-02-20T17:49:23.743Z,101218.95
2018-02-20T17:51:51.403Z,101219.12
2018-02-20T17:54:19.012Z,101223.47
2018-02-20T17:56:46.838Z,101231.69
2018-02-20T17:59:14.459Z,101228.86
2018-02-20T18:01:42.102Z,101232.05
2018-02-20T18:04:09.709Z,101239.60
2018-02-20T18:06:37.347Z,101236.72
2018-02-20T18:09:05.835Z,101245.47
2018-02-20T18:11:33.495Z,101247.11
2018-02-20T18:14:01.139Z,101248.84
2018-02-20T18:16:28.836Z,101250.80
2018-02-20T18:18:56.509Z,101249.64
2018-02-20T18:21:24.138Z,101257.52
2018-02-20T18:23:51.728Z,101259.56
2018-02-20T18:26:19.370Z,101258.78
2018-02-20T18:28:47.172Z,101262.77
2018-02-20T18:31:14.791Z,101265.64
2018-02-20T18:33:42.384Z,101272.61
2018-02-20T18:36:10.055Z,101274.98
2018-02-20T18:38:37.655Z,101277.33
2018-02-20T18:41:05.460Z,101279.70
2018-02-20T18:43:33.062Z,101286.20
2018-02-20T18:46:00.702Z,101286.38
2018-02-20T18:48:28.311Z,101288.48
2018-02-20T18:50:55.980Z,101286.84
2018-02-20T18:53:23.602Z,101286.04
2018-02-20T18:55:51.231Z,101288.93
2018-02-20T18:58:18.945Z,101292.95
2018-02-20T19:00:46.601Z,101295.33
2018-02-20T19:03:14.215Z,101295.42
2018-02-20T19:05:41.861Z,101292.78
2018-02-20T19:08:09.467Z,101293.73
2018-02-20T19:10:37.251Z,101291.88
2018-02-20T19:13:04.854Z,101303.44
2018-02-20T19:15:32.467Z,101299.25
2018-02-20T19:18:00.086Z,101302.33
2018-02-20T19:20:27.733Z,101297.65
2018-02-20T19:22:55.337Z,101310.92
2018-02-20T19:25:23.140Z,101311.73
2018-02-20T19:27:50.735Z,101316.25
2018-02-20T19:30:18.367Z,101327.08
2018-02-20T19:32:45.963Z,101332.07
2018-02-20T19:35:13.603Z,101334.19
2018-02-20T19:37:41.202Z,101335.33
2018-02-20T19:40:08.845Z,101335.55
2018-02-20T19:42:36.456Z,101342.92
2018-02-20T19:45:04.116Z,101344.69
2018-02-20T19:47:31.737Z,101342.52
2018-02-20T19:49:59.396Z,101344.59
2018-02-20T19:52:27.017Z,101348.47
2018-02-20T19:54:54.687Z,101346.03
2018-02-20T19:57:22.423Z,101350.72
2018-02-20T19:59:50.075Z,101350.03
2018-02-20T20:02:17.712Z,101355.18
2018-02-20T20:04:45.439Z,101347.92
2018-02-20T20:07:13.094Z,101353.53
2018-02-20T20:09:40.783Z,101358.11
2018-02-20T20:12:08.418Z,101350.68
2018-02-20T20:14:36.043Z,101356.19
2018-02-20T20:17:03.671Z,101351.17
2018-02-20T20:19:31.290Z,101358.42
2018-02-20T20:21:58.936Z,101362.61
2018-02-20T20:24:26.591Z,101359.02
2018-02-20T20:26:54.233Z,101360.55
2018-02-20T20:29:21.851Z,101368.30
2018-02-20T20:31:49.483Z,101364.73
2018-02-20T20:34:17.108Z,101367.18
2018-02-20T20:36:44.746Z,101368.71
2018-02-20T20:39:12.346Z,101366.80
2018-02-20T20:41:40.019Z,101366.16
2018-02-20T20:44:07.647Z,101370.95
2018-02-20T20:46:35.305Z,101378.20
2018-02-20T20:49:02.962Z,101384.31
2018-02-20T20:51:30.599Z,101384.03
2018-02-20T20:53:58.196Z,101384.73
2018-02-20T20:56:25.826Z,101391.45
2018-02-20T20:58:53.447Z,101391.88
2018-02-20T21:01:21.091Z,101389.81
2018-02-20T21:03:48.682Z,101400.13
2018-02-20T21:06:16.322Z,101405.74
2018-02-20T21:08:43.926Z,101411.32
2018-02-20T21:11:11.578Z,101408.98
2018-02-20T21:13:39.176Z,101412.97
2018-02-20T21:16:06.838Z,101408.30
2018-02-20T21:18:34.531Z,101407.77
2018-02-20T21:21:02.198Z,101410.63
2018-02-20T21:23:29.794Z,101412.86
2018-02-20T21:25:57.442Z,101413.48
2018-02-20T21:28:25.087Z,101419.48
2018-02-20T21:30:52.706Z,101419.58
2018-02-20T21:33:20.297Z,101419.36
2018-02-20T21:35:47.926Z,101416.00
2018-02-20T21:38:15.514Z,101418.86
2018-02-20T21:40:43.155Z,101428.24
2018-02-20T21:43:10.972Z,101434.34
2018-02-20T21:45:38.613Z,101435.34
2018-02-20T21:48:06.200Z,101438.20
2018-02-20T21:50:33.882Z,101441.16
2018-02-20T21:53:01.513Z,101442.75
2018-02-20T21:55:29.299Z,101444.38
2018-02-20T21:57:57.670Z,101445.48
2018-02-20T22:00:25.292Z,101451.41
2018-02-20T22:02:52.882Z,101458.62
2018-02-20T22:05:20.575Z,101457.29
2018-02-20T22:07:48.209Z,101451.86
2018-02-20T22:10:15.840Z,101450.44
2018-02-20T22:12:43.452Z,101450.73
2018-02-20T22:15:11.267Z,101458.08
2018-02-20T22:17:38.867Z,101457.13
2018-02-20T22:20:06.549Z,101454.08
2018-02-20T22:22:34.153Z,101455.20
2018-02-20T22:25:01.906Z,101461.17
2018-02-20T22:27:29.551Z,101456.40
2018-02-20T22:29:57.179Z,101460.03
2018-02-20T22:32:24.943Z,101460.10
2018-02-20T22:34:52.697Z,101461.41
2018-02-20T22:37:20.315Z,101456.45
2018-02-20T22:39:47.935Z,101460.02
2018-02-20T22:42:15.532Z,101463.87
2018-02-20T22:44:43.302Z,101467.95
2018-02-20T22:47:10.892Z,101471.71
2018-02-20T22:49:38.511Z,101476.92
2018-02-20T22:52:06.102Z,101476.06
2018-02-20T22:54:33.750Z,101486.73
2018-02-20T22:57:01.347Z,101483.38
2018-02-20T22:59:28.947Z,101486.73
2018-02-20T23:01:56.578Z,101495.00
2018-02-20T23:04:24.197Z,101509.03
2018-02-20T23:06:51.807Z,101513.11
2018-02-20T23:09:19.402Z,101512.80
2018-02-20T23:11:47.747Z,101518.29
2018-02-20T23:14:15.412Z,101520.69
2018-02-20T23:16:43.034Z,101524.00
2018-02-20T23:19:10.663Z,101525.94
2018-02-20T23:21:38.287Z,101529.48
2018-02-20T23:24:05.887Z,101532.03
2018-02-20T23:26:33.646Z,101537.82
2018-02-20T23:29:01.268Z,101537.18
2018-02-20T23:31:28.899Z,101537.77
2018-02-20T23:33:56.544Z,101540.94
2018-02-20T23:36:24.162Z,101541.52
2018-02-20T23:38:51.779Z,101539.77
2018-02-20T23:41:19.393Z,101539.16
2018-02-20T23:43:46.985Z,101541.94
2018-02-20T23:46:14.862Z,101540.59
2018-02-20T23:48:42.445Z,101553.52
2018-02-20T23:51:15.662Z,101559.91
2018-02-20T23:53:43.252Z,101563.17
2018-02-20T23:56:10.862Z,101567.41
2018-02-20T23:58:38.549Z,101558.83
